sensor_id;sensor_type;location;lat;lon;timestamp;P1;durP1;ratioP1;P2;durP2;ratioP2
43994;SDS011;51687;52.160;5.298;2023-05-20T00:02:09;8.80;;;3.55;;
43994;SDS011;51687;52.160;5.298;2023-05-20T00:04:35;5.53;;;3.00;;
43994;SDS011;51687;52.160;5.298;2023-05-20T00:07:02;5.45;;;3.50;;
43994;SDS011;51687;52.160;5.298;2023-05-20T00:09:29;9.75;;;4.32;;
43994;SDS011;51687;52.160;5.298;2023-05-20T00:11:56;5.28;;;3.20;;
43994;SDS011;51687;52.160;5.298;2023-05-20T00:14:22;6.95;;;4.00;;
43994;SDS011;51687;52.160;5.298;2023-05-20T00:16:49;5.60;;;3.17;;
43994;SDS011;51687;52.160;5.298;2023-05-20T00:19:16;6.65;;;3.33;;
43994;SDS011;51687;52.160;5.298;2023-05-20T00:21:44;7.15;;;3.42;;
43994;SDS011;51687;52.160;5.298;2023-05-20T00:24:11;5.30;;;3.17;;
43994;SDS011;51687;52.160;5.298;2023-05-20T00:26:37;4.70;;;3.42;;
43994;SDS011;51687;52.160;5.298;2023-05-20T00:29:05;6.78;;;3.45;;
43994;SDS011;51687;52.160;5.298;2023-05-20T00:31:32;7.15;;;3.20;;
43994;SDS011;51687;52.160;5.298;2023-05-20T00:33:59;9.02;;;3.50;;
43994;SDS011;51687;52.160;5.298;2023-05-20T00:36:25;8.57;;;3.72;;
43994;SDS011;51687;52.160;5.298;2023-05-20T00:38:52;8.57;;;4.35;;
43994;SDS011;51687;52.160;5.298;2023-05-20T00:41:19;7.95;;;3.40;;
43994;SDS011;51687;52.160;5.298;2023-05-20T00:43:46;8.48;;;4.07;;
43994;SDS011;51687;52.160;5.298;2023-05-20T00:46:13;9.45;;;4.38;;
43994;SDS011;51687;52.160;5.298;2023-05-20T00:48:41;8.43;;;4.18;;
43994;SDS011;51687;52.160;5.298;2023-05-20T00:51:09;7.07;;;3.90;;
43994;SDS011;51687;52.160;5.298;2023-05-20T00:53:38;5.93;;;3.38;;
43994;SDS011;51687;52.160;5.298;2023-05-20T00:56:05;6.72;;;4.15;;
43994;SDS011;51687;52.160;5.298;2023-05-20T00:58:33;8.50;;;4.18;;
43994;SDS011;51687;52.160;5.298;2023-05-20T01:01:02;6.97;;;4.28;;
43994;SDS011;51687;52.160;5.298;2023-05-20T01:03:30;6.38;;;3.53;;
43994;SDS011;51687;52.160;5.298;2023-05-20T01:05:57;6.05;;;4.15;;
43994;SDS011;51687;52.160;5.298;2023-05-20T01:08:24;5.68;;;4.07;;
43994;SDS011;51687;52.160;5.298;2023-05-20T01:11:35;7.40;;;3.55;;
43994;SDS011;51687;52.160;5.298;2023-05-20T01:13:50;7.05;;;3.90;;
43994;SDS011;51687;52.160;5.298;2023-05-20T01:16:23;6.00;;;3.83;;
43994;SDS011;51687;52.160;5.298;2023-05-20T01:18:50;5.93;;;4.53;;
43994;SDS011;51687;52.160;5.298;2023-05-20T01:21:21;4.25;;;3.55;;
43994;SDS011;51687;52.160;5.298;2023-05-20T01:23:48;6.03;;;4.25;;
43994;SDS011;51687;52.160;5.298;2023-05-20T01:26:15;5.70;;;3.72;;
43994;SDS011;51687;52.160;5.298;2023-05-20T01:28:43;7.13;;;4.38;;
43994;SDS011;51687;52.160;5.298;2023-05-20T01:31:14;6.93;;;4.68;;
43994;SDS011;51687;52.160;5.298;2023-05-20T01:33:49;5.43;;;4.38;;
43994;SDS011;51687;52.160;5.298;2023-05-20T01:36:20;7.03;;;4.40;;
43994;SDS011;51687;52.160;5.298;2023-05-20T01:38:48;5.87;;;3.83;;
43994;SDS011;51687;52.160;5.298;2023-05-20T01:41:16;6.43;;;4.95;;
43994;SDS011;51687;52.160;5.298;2023-05-20T01:43:43;6.38;;;4.13;;
43994;SDS011;51687;52.160;5.298;2023-05-20T01:46:10;5.50;;;4.35;;
43994;SDS011;51687;52.160;5.298;2023-05-20T01:48:37;5.95;;;4.13;;
43994;SDS011;51687;52.160;5.298;2023-05-20T01:51:04;6.65;;;4.20;;
43994;SDS011;51687;52.160;5.298;2023-05-20T01:53:31;7.00;;;4.75;;
43994;SDS011;51687;52.160;5.298;2023-05-20T01:55:58;7.07;;;4.60;;
43994;SDS011;51687;52.160;5.298;2023-05-20T01:58:25;8.00;;;4.35;;
43994;SDS011;51687;52.160;5.298;2023-05-20T02:00:51;5.72;;;4.57;;
43994;SDS011;51687;52.160;5.298;2023-05-20T02:03:18;6.60;;;4.10;;
43994;SDS011;51687;52.160;5.298;2023-05-20T02:05:45;8.05;;;4.70;;
43994;SDS011;51687;52.160;5.298;2023-05-20T02:08:12;4.35;;;3.88;;
43994;SDS011;51687;52.160;5.298;2023-05-20T02:10:39;11.18;;;4.45;;
43994;SDS011;51687;52.160;5.298;2023-05-20T02:13:05;8.57;;;4.80;;
43994;SDS011;51687;52.160;5.298;2023-05-20T02:15:32;4.97;;;4.20;;
43994;SDS011;51687;52.160;5.298;2023-05-20T02:17:59;5.40;;;4.47;;
43994;SDS011;51687;52.160;5.298;2023-05-20T02:20:27;6.17;;;4.67;;
43994;SDS011;51687;52.160;5.298;2023-05-20T02:22:54;7.63;;;4.93;;
43994;SDS011;51687;52.160;5.298;2023-05-20T02:25:21;5.78;;;3.97;;
43994;SDS011;51687;52.160;5.298;2023-05-20T02:27:48;6.65;;;4.15;;
43994;SDS011;51687;52.160;5.298;2023-05-20T02:30:15;8.10;;;4.70;;
43994;SDS011;51687;52.160;5.298;2023-05-20T02:32:42;6.75;;;4.30;;
43994;SDS011;51687;52.160;5.298;2023-05-20T02:35:09;5.63;;;4.43;;
43994;SDS011;51687;52.160;5.298;2023-05-20T02:37:36;8.35;;;4.78;;
43994;SDS011;51687;52.160;5.298;2023-05-20T02:40:04;7.60;;;4.80;;
43994;SDS011;51687;52.160;5.298;2023-05-20T02:42:32;11.23;;;4.88;;
43994;SDS011;51687;52.160;5.298;2023-05-20T02:44:58;7.22;;;4.57;;
43994;SDS011;51687;52.160;5.298;2023-05-20T02:47:25;7.97;;;5.35;;
43994;SDS011;51687;52.160;5.298;2023-05-20T02:49:52;8.35;;;4.78;;
43994;SDS011;51687;52.160;5.298;2023-05-20T02:52:19;6.68;;;4.40;;
43994;SDS011;51687;52.160;5.298;2023-05-20T02:54:47;5.68;;;4.22;;
43994;SDS011;51687;52.160;5.298;2023-05-20T02:57:14;8.45;;;4.47;;
43994;SDS011;51687;52.160;5.298;2023-05-20T02:59:41;9.20;;;4.35;;
43994;SDS011;51687;52.160;5.298;2023-05-20T03:02:08;7.75;;;4.47;;
43994;SDS011;51687;52.160;5.298;2023-05-20T03:04:35;6.65;;;4.70;;
43994;SDS011;51687;52.160;5.298;2023-05-20T03:07:04;8.00;;;4.75;;
43994;SDS011;51687;52.160;5.298;2023-05-20T03:11:59;10.07;;;4.80;;
43994;SDS011;51687;52.160;5.298;2023-05-20T03:14:26;8.68;;;4.53;;
43994;SDS011;51687;52.160;5.298;2023-05-20T03:16:53;7.40;;;4.63;;
43994;SDS011;51687;52.160;5.298;2023-05-20T03:19:23;9.05;;;4.80;;
43994;SDS011;51687;52.160;5.298;2023-05-20T03:21:53;6.90;;;4.57;;
43994;SDS011;51687;52.160;5.298;2023-05-20T03:24:20;5.30;;;4.30;;
43994;SDS011;51687;52.160;5.298;2023-05-20T03:29:15;7.65;;;4.53;;
43994;SDS011;51687;52.160;5.298;2023-05-20T03:31:43;10.95;;;4.93;;
43994;SDS011;51687;52.160;5.298;2023-05-20T03:34:09;5.78;;;4.40;;
43994;SDS011;51687;52.160;5.298;2023-05-20T03:36:36;8.23;;;5.80;;
43994;SDS011;51687;52.160;5.298;2023-05-20T03:39:03;5.10;;;4.15;;
43994;SDS011;51687;52.160;5.298;2023-05-20T03:41:31;7.18;;;5.15;;
43994;SDS011;51687;52.160;5.298;2023-05-20T03:43:58;10.82;;;4.65;;
43994;SDS011;51687;52.160;5.298;2023-05-20T03:46:24;5.72;;;5.07;;
43994;SDS011;51687;52.160;5.298;2023-05-20T03:48:51;6.25;;;4.22;;
43994;SDS011;51687;52.160;5.298;2023-05-20T03:51:18;9.00;;;4.50;;
43994;SDS011;51687;52.160;5.298;2023-05-20T03:53:45;7.68;;;4.75;;
43994;SDS011;51687;52.160;5.298;2023-05-20T03:56:11;7.97;;;5.40;;
43994;SDS011;51687;52.160;5.298;2023-05-20T03:58:38;7.43;;;4.57;;
43994;SDS011;51687;52.160;5.298;2023-05-20T04:01:05;6.80;;;4.95;;
43994;SDS011;51687;52.160;5.298;2023-05-20T04:03:32;6.60;;;5.03;;
43994;SDS011;51687;52.160;5.298;2023-05-20T04:05:59;6.85;;;4.68;;
43994;SDS011;51687;52.160;5.298;2023-05-20T04:08:26;6.60;;;4.57;;
43994;SDS011;51687;52.160;5.298;2023-05-20T04:10:56;8.05;;;4.72;;
43994;SDS011;51687;52.160;5.298;2023-05-20T04:13:23;8.00;;;4.95;;
43994;SDS011;51687;52.160;5.298;2023-05-20T04:15:51;13.67;;;5.47;;
43994;SDS011;51687;52.160;5.298;2023-05-20T04:18:18;8.32;;;4.80;;
43994;SDS011;51687;52.160;5.298;2023-05-20T04:20:45;7.30;;;4.63;;
43994;SDS011;51687;52.160;5.298;2023-05-20T04:23:12;9.10;;;5.28;;
43994;SDS011;51687;52.160;5.298;2023-05-20T04:25:39;7.32;;;5.95;;
43994;SDS011;51687;52.160;5.298;2023-05-20T04:28:08;6.93;;;5.28;;
43994;SDS011;51687;52.160;5.298;2023-05-20T04:33:03;7.57;;;5.03;;
43994;SDS011;51687;52.160;5.298;2023-05-20T04:35:31;7.10;;;6.00;;
43994;SDS011;51687;52.160;5.298;2023-05-20T04:38:00;7.13;;;4.93;;
43994;SDS011;51687;52.160;5.298;2023-05-20T04:40:27;6.53;;;5.28;;
43994;SDS011;51687;52.160;5.298;2023-05-20T04:42:54;11.68;;;5.60;;
43994;SDS011;51687;52.160;5.298;2023-05-20T04:45:21;7.85;;;5.47;;
43994;SDS011;51687;52.160;5.298;2023-05-20T04:47:48;10.68;;;4.82;;
43994;SDS011;51687;52.160;5.298;2023-05-20T04:50:15;9.25;;;5.75;;
43994;SDS011;51687;52.160;5.298;2023-05-20T04:52:42;6.65;;;5.03;;
43994;SDS011;51687;52.160;5.298;2023-05-20T04:55:11;8.55;;;4.47;;
43994;SDS011;51687;52.160;5.298;2023-05-20T04:57:38;6.32;;;5.20;;
43994;SDS011;51687;52.160;5.298;2023-05-20T05:00:08;9.43;;;5.45;;
43994;SDS011;51687;52.160;5.298;2023-05-20T05:02:36;6.28;;;4.95;;
43994;SDS011;51687;52.160;5.298;2023-05-20T05:05:03;5.47;;;4.65;;
43994;SDS011;51687;52.160;5.298;2023-05-20T05:07:31;6.07;;;4.90;;
43994;SDS011;51687;52.160;5.298;2023-05-20T05:09:58;7.28;;;4.78;;
43994;SDS011;51687;52.160;5.298;2023-05-20T05:12:25;7.47;;;4.57;;
43994;SDS011;51687;52.160;5.298;2023-05-20T05:14:52;6.13;;;4.25;;
43994;SDS011;51687;52.160;5.298;2023-05-20T05:17:18;5.43;;;4.60;;
43994;SDS011;51687;52.160;5.298;2023-05-20T05:19:45;6.97;;;5.25;;
43994;SDS011;51687;52.160;5.298;2023-05-20T05:22:12;9.48;;;4.43;;
43994;SDS011;51687;52.160;5.298;2023-05-20T05:24:39;5.03;;;4.35;;
43994;SDS011;51687;52.160;5.298;2023-05-20T05:27:06;5.95;;;4.68;;
43994;SDS011;51687;52.160;5.298;2023-05-20T05:29:33;9.32;;;4.97;;
43994;SDS011;51687;52.160;5.298;2023-05-20T05:31:59;6.60;;;4.35;;
43994;SDS011;51687;52.160;5.298;2023-05-20T05:34:26;6.63;;;4.65;;
43994;SDS011;51687;52.160;5.298;2023-05-20T05:36:53;6.30;;;3.97;;
43994;SDS011;51687;52.160;5.298;2023-05-20T05:39:20;6.10;;;4.22;;
43994;SDS011;51687;52.160;5.298;2023-05-20T05:41:47;7.47;;;3.95;;
43994;SDS011;51687;52.160;5.298;2023-05-20T05:44:14;6.68;;;4.55;;
43994;SDS011;51687;52.160;5.298;2023-05-20T05:46:41;5.05;;;4.10;;
43994;SDS011;51687;52.160;5.298;2023-05-20T05:49:07;5.82;;;4.18;;
43994;SDS011;51687;52.160;5.298;2023-05-20T05:51:34;8.48;;;3.95;;
43994;SDS011;51687;52.160;5.298;2023-05-20T05:54:04;5.45;;;4.38;;
43994;SDS011;51687;52.160;5.298;2023-05-20T05:56:31;6.40;;;4.30;;
43994;SDS011;51687;52.160;5.298;2023-05-20T05:58:57;7.80;;;5.15;;
43994;SDS011;51687;52.160;5.298;2023-05-20T06:01:24;5.43;;;4.20;;
43994;SDS011;51687;52.160;5.298;2023-05-20T06:03:51;5.60;;;3.92;;
43994;SDS011;51687;52.160;5.298;2023-05-20T06:06:18;5.97;;;3.97;;
43994;SDS011;51687;52.160;5.298;2023-05-20T06:08:45;4.70;;;3.67;;
43994;SDS011;51687;52.160;5.298;2023-05-20T06:11:12;7.55;;;3.47;;
43994;SDS011;51687;52.160;5.298;2023-05-20T06:13:38;8.25;;;4.32;;
43994;SDS011;51687;52.160;5.298;2023-05-20T06:16:06;4.72;;;4.13;;
43994;SDS011;51687;52.160;5.298;2023-05-20T06:18:33;4.28;;;3.88;;
43994;SDS011;51687;52.160;5.298;2023-05-20T06:20:59;7.45;;;4.00;;
43994;SDS011;51687;52.160;5.298;2023-05-20T06:23:26;6.07;;;4.03;;
43994;SDS011;51687;52.160;5.298;2023-05-20T06:25:56;4.10;;;3.47;;
43994;SDS011;51687;52.160;5.298;2023-05-20T06:28:25;4.45;;;3.67;;
43994;SDS011;51687;52.160;5.298;2023-05-20T06:33:22;4.88;;;4.13;;
43994;SDS011;51687;52.160;5.298;2023-05-20T06:35:53;7.88;;;4.18;;
43994;SDS011;51687;52.160;5.298;2023-05-20T06:38:21;5.68;;;3.85;;
43994;SDS011;51687;52.160;5.298;2023-05-20T06:40:48;5.55;;;4.00;;
43994;SDS011;51687;52.160;5.298;2023-05-20T06:43:16;5.53;;;4.22;;
43994;SDS011;51687;52.160;5.298;2023-05-20T06:45:43;5.93;;;4.35;;
43994;SDS011;51687;52.160;5.298;2023-05-20T06:48:11;8.82;;;3.95;;
43994;SDS011;51687;52.160;5.298;2023-05-20T06:50:38;5.20;;;3.70;;
43994;SDS011;51687;52.160;5.298;2023-05-20T06:53:05;10.23;;;4.13;;
43994;SDS011;51687;52.160;5.298;2023-05-20T06:55:32;8.27;;;4.07;;
43994;SDS011;51687;52.160;5.298;2023-05-20T06:57:59;6.65;;;4.22;;
43994;SDS011;51687;52.160;5.298;2023-05-20T07:00:25;6.90;;;4.03;;
43994;SDS011;51687;52.160;5.298;2023-05-20T07:02:52;4.88;;;3.33;;
43994;SDS011;51687;52.160;5.298;2023-05-20T07:05:19;5.22;;;3.97;;
43994;SDS011;51687;52.160;5.298;2023-05-20T07:07:46;4.70;;;3.60;;
43994;SDS011;51687;52.160;5.298;2023-05-20T07:10:13;6.68;;;4.50;;
43994;SDS011;51687;52.160;5.298;2023-05-20T07:12:39;7.88;;;3.55;;
43994;SDS011;51687;52.160;5.298;2023-05-20T07:15:06;3.80;;;2.95;;
43994;SDS011;51687;52.160;5.298;2023-05-20T07:17:33;7.50;;;4.38;;
43994;SDS011;51687;52.160;5.298;2023-05-20T07:20:00;6.65;;;3.83;;
43994;SDS011;51687;52.160;5.298;2023-05-20T07:22:29;6.65;;;3.63;;
43994;SDS011;51687;52.160;5.298;2023-05-20T07:24:56;9.65;;;3.65;;
43994;SDS011;51687;52.160;5.298;2023-05-20T07:27:23;4.93;;;3.42;;
43994;SDS011;51687;52.160;5.298;2023-05-20T07:29:49;4.13;;;2.85;;
43994;SDS011;51687;52.160;5.298;2023-05-20T07:32:16;7.60;;;3.63;;
43994;SDS011;51687;52.160;5.298;2023-05-20T07:34:43;5.47;;;3.10;;
43994;SDS011;51687;52.160;5.298;2023-05-20T07:37:10;5.05;;;2.88;;
43994;SDS011;51687;52.160;5.298;2023-05-20T07:39:38;8.77;;;3.30;;
43994;SDS011;51687;52.160;5.298;2023-05-20T07:42:04;6.03;;;3.33;;
43994;SDS011;51687;52.160;5.298;2023-05-20T07:44:31;5.47;;;3.03;;
43994;SDS011;51687;52.160;5.298;2023-05-20T07:46:59;6.28;;;3.10;;
43994;SDS011;51687;52.160;5.298;2023-05-20T07:49:26;4.32;;;2.92;;
43994;SDS011;51687;52.160;5.298;2023-05-20T07:51:52;5.65;;;3.33;;
43994;SDS011;51687;52.160;5.298;2023-05-20T07:54:19;6.22;;;3.65;;
43994;SDS011;51687;52.160;5.298;2023-05-20T07:56:46;7.03;;;2.97;;
43994;SDS011;51687;52.160;5.298;2023-05-20T07:59:13;5.63;;;2.80;;
43994;SDS011;51687;52.160;5.298;2023-05-20T08:01:40;3.40;;;2.90;;
43994;SDS011;51687;52.160;5.298;2023-05-20T08:04:07;4.30;;;3.13;;
43994;SDS011;51687;52.160;5.298;2023-05-20T08:06:35;3.83;;;3.10;;
43994;SDS011;51687;52.160;5.298;2023-05-20T08:09:02;7.40;;;3.42;;
43994;SDS011;51687;52.160;5.298;2023-05-20T08:11:29;4.13;;;2.65;;
43994;SDS011;51687;52.160;5.298;2023-05-20T08:13:56;6.78;;;2.55;;
43994;SDS011;51687;52.160;5.298;2023-05-20T08:16:23;5.38;;;2.80;;
43994;SDS011;51687;52.160;5.298;2023-05-20T08:18:50;3.70;;;2.60;;
43994;SDS011;51687;52.160;5.298;2023-05-20T08:21:16;5.35;;;2.90;;
43994;SDS011;51687;52.160;5.298;2023-05-20T08:23:43;3.35;;;2.85;;
43994;SDS011;51687;52.160;5.298;2023-05-20T08:26:10;4.85;;;2.63;;
43994;SDS011;51687;52.160;5.298;2023-05-20T08:28:37;4.65;;;2.10;;
43994;SDS011;51687;52.160;5.298;2023-05-20T08:31:04;6.68;;;2.45;;
43994;SDS011;51687;52.160;5.298;2023-05-20T08:33:31;3.05;;;2.30;;
43994;SDS011;51687;52.160;5.298;2023-05-20T08:35:57;3.97;;;2.78;;
43994;SDS011;51687;52.160;5.298;2023-05-20T08:38:24;5.53;;;2.10;;
43994;SDS011;51687;52.160;5.298;2023-05-20T08:40:52;2.92;;;2.25;;
43994;SDS011;51687;52.160;5.298;2023-05-20T08:43:21;3.13;;;2.28;;
43994;SDS011;51687;52.160;5.298;2023-05-20T08:45:51;4.53;;;1.98;;
43994;SDS011;51687;52.160;5.298;2023-05-20T08:48:18;4.78;;;2.13;;
43994;SDS011;51687;52.160;5.298;2023-05-20T08:50:51;2.78;;;1.77;;
43994;SDS011;51687;52.160;5.298;2023-05-20T08:53:19;2.42;;;1.70;;
43994;SDS011;51687;52.160;5.298;2023-05-20T08:55:54;2.47;;;1.83;;
43994;SDS011;51687;52.160;5.298;2023-05-20T08:58:27;4.63;;;1.85;;
43994;SDS011;51687;52.160;5.298;2023-05-20T09:00:54;2.15;;;1.70;;
43994;SDS011;51687;52.160;5.298;2023-05-20T09:03:21;2.42;;;1.52;;
43994;SDS011;51687;52.160;5.298;2023-05-20T09:05:51;2.25;;;1.55;;
43994;SDS011;51687;52.160;5.298;2023-05-20T09:08:19;5.85;;;1.95;;
43994;SDS011;51687;52.160;5.298;2023-05-20T09:10:51;2.67;;;1.70;;
43994;SDS011;51687;52.160;5.298;2023-05-20T09:13:19;3.50;;;1.70;;
43994;SDS011;51687;52.160;5.298;2023-05-20T09:15:49;2.72;;;2.22;;
43994;SDS011;51687;52.160;5.298;2023-05-20T09:18:16;2.95;;;1.63;;
43994;SDS011;51687;52.160;5.298;2023-05-20T09:20:45;4.63;;;2.08;;
43994;SDS011;51687;52.160;5.298;2023-05-20T09:23:13;3.13;;;1.77;;
43994;SDS011;51687;52.160;5.298;2023-05-20T09:25:40;2.40;;;1.67;;
43994;SDS011;51687;52.160;5.298;2023-05-20T09:28:07;3.05;;;1.70;;
43994;SDS011;51687;52.160;5.298;2023-05-20T09:30:34;3.88;;;1.75;;
43994;SDS011;51687;52.160;5.298;2023-05-20T09:33:02;2.47;;;1.25;;
43994;SDS011;51687;52.160;5.298;2023-05-20T09:35:33;4.53;;;1.70;;
43994;SDS011;51687;52.160;5.298;2023-05-20T09:38:02;2.95;;;1.63;;
43994;SDS011;51687;52.160;5.298;2023-05-20T09:43:00;3.85;;;1.70;;
43994;SDS011;51687;52.160;5.298;2023-05-20T09:45:28;3.95;;;1.55;;
43994;SDS011;51687;52.160;5.298;2023-05-20T09:47:55;5.40;;;2.08;;
43994;SDS011;51687;52.160;5.298;2023-05-20T09:50:23;2.85;;;1.30;;
43994;SDS011;51687;52.160;5.298;2023-05-20T09:52:51;6.65;;;1.90;;
43994;SDS011;51687;52.160;5.298;2023-05-20T09:55:19;3.37;;;1.57;;
43994;SDS011;51687;52.160;5.298;2023-05-20T10:00:14;4.20;;;1.20;;
43994;SDS011;51687;52.160;5.298;2023-05-20T10:02:46;2.65;;;1.50;;
43994;SDS011;51687;52.160;5.298;2023-05-20T10:07:47;3.35;;;1.40;;
43994;SDS011;51687;52.160;5.298;2023-05-20T10:12:50;1.60;;;1.33;;
43994;SDS011;51687;52.160;5.298;2023-05-20T10:18:28;4.80;;;1.50;;
43994;SDS011;51687;52.160;5.298;2023-05-20T10:20:58;2.30;;;1.10;;
43994;SDS011;51687;52.160;5.298;2023-05-20T10:23:27;2.90;;;1.10;;
43994;SDS011;51687;52.160;5.298;2023-05-20T10:25:55;4.05;;;1.23;;
43994;SDS011;51687;52.160;5.298;2023-05-20T10:30:57;2.78;;;2.08;;
43994;SDS011;51687;52.160;5.298;2023-05-20T10:33:25;2.40;;;1.30;;
43994;SDS011;51687;52.160;5.298;2023-05-20T10:35:58;2.13;;;1.23;;
43994;SDS011;51687;52.160;5.298;2023-05-20T10:38:26;3.72;;;1.48;;
43994;SDS011;51687;52.160;5.298;2023-05-20T10:40:53;2.65;;;1.15;;
43994;SDS011;51687;52.160;5.298;2023-05-20T10:43:26;11.65;;;1.95;;
43994;SDS011;51687;52.160;5.298;2023-05-20T10:45:54;1.65;;;1.35;;
43994;SDS011;51687;52.160;5.298;2023-05-20T10:48:32;4.60;;;1.30;;
43994;SDS011;51687;52.160;5.298;2023-05-20T10:51:00;5.63;;;1.75;;
43994;SDS011;51687;52.160;5.298;2023-05-20T10:53:41;4.40;;;1.10;;
43994;SDS011;51687;52.160;5.298;2023-05-20T10:56:16;2.45;;;1.10;;
43994;SDS011;51687;52.160;5.298;2023-05-20T10:58:44;4.25;;;1.45;;
43994;SDS011;51687;52.160;5.298;2023-05-20T11:01:11;1.48;;;1.17;;
43994;SDS011;51687;52.160;5.298;2023-05-20T11:03:39;1.60;;;1.20;;
43994;SDS011;51687;52.160;5.298;2023-05-20T11:06:12;2.83;;;1.33;;
43994;SDS011;51687;52.160;5.298;2023-05-20T11:08:43;2.60;;;1.15;;
43994;SDS011;51687;52.160;5.298;2023-05-20T11:11:11;6.10;;;1.55;;
43994;SDS011;51687;52.160;5.298;2023-05-20T11:13:40;2.47;;;1.20;;
43994;SDS011;51687;52.160;5.298;2023-05-20T11:18:35;1.92;;;0.90;;
43994;SDS011;51687;52.160;5.298;2023-05-20T11:21:02;2.85;;;1.65;;
43994;SDS011;51687;52.160;5.298;2023-05-20T11:23:29;2.20;;;1.25;;
43994;SDS011;51687;52.160;5.298;2023-05-20T11:25:57;6.70;;;1.30;;
43994;SDS011;51687;52.160;5.298;2023-05-20T11:28:24;3.88;;;1.60;;
43994;SDS011;51687;52.160;5.298;2023-05-20T11:30:51;3.33;;;1.35;;
43994;SDS011;51687;52.160;5.298;2023-05-20T11:33:20;1.88;;;1.38;;
43994;SDS011;51687;52.160;5.298;2023-05-20T11:35:52;3.05;;;1.55;;
43994;SDS011;51687;52.160;5.298;2023-05-20T11:38:20;5.40;;;1.60;;
43994;SDS011;51687;52.160;5.298;2023-05-20T11:40:51;4.28;;;1.10;;
43994;SDS011;51687;52.160;5.298;2023-05-20T11:43:19;2.95;;;1.08;;
43994;SDS011;51687;52.160;5.298;2023-05-20T11:45:47;2.75;;;1.38;;
43994;SDS011;51687;52.160;5.298;2023-05-20T11:48:18;3.85;;;1.33;;
43994;SDS011;51687;52.160;5.298;2023-05-20T11:50:46;5.18;;;1.40;;
43994;SDS011;51687;52.160;5.298;2023-05-20T11:53:14;2.90;;;1.58;;
43994;SDS011;51687;52.160;5.298;2023-05-20T11:55:44;2.85;;;1.35;;
43994;SDS011;51687;52.160;5.298;2023-05-20T11:58:14;2.08;;;1.10;;
43994;SDS011;51687;52.160;5.298;2023-05-20T12:00:42;1.88;;;1.20;;
43994;SDS011;51687;52.160;5.298;2023-05-20T12:03:14;1.52;;;1.30;;
43994;SDS011;51687;52.160;5.298;2023-05-20T12:05:43;3.15;;;1.30;;
43994;SDS011;51687;52.160;5.298;2023-05-20T12:08:10;1.83;;;1.30;;
43994;SDS011;51687;52.160;5.298;2023-05-20T12:10:37;5.10;;;1.30;;
43994;SDS011;51687;52.160;5.298;2023-05-20T12:13:06;3.78;;;1.75;;
43994;SDS011;51687;52.160;5.298;2023-05-20T12:15:34;2.05;;;1.02;;
43994;SDS011;51687;52.160;5.298;2023-05-20T12:18:02;1.85;;;1.38;;
43994;SDS011;51687;52.160;5.298;2023-05-20T12:20:29;2.75;;;1.23;;
43994;SDS011;51687;52.160;5.298;2023-05-20T12:22:59;4.63;;;1.33;;
43994;SDS011;51687;52.160;5.298;2023-05-20T12:25:27;1.67;;;1.33;;
43994;SDS011;51687;52.160;5.298;2023-05-20T12:27:55;2.83;;;1.00;;
43994;SDS011;51687;52.160;5.298;2023-05-20T12:30:22;3.97;;;1.13;;
43994;SDS011;51687;52.160;5.298;2023-05-20T12:32:50;2.33;;;1.07;;
43994;SDS011;51687;52.160;5.298;2023-05-20T12:35:23;1.93;;;1.20;;
43994;SDS011;51687;52.160;5.298;2023-05-20T12:37:51;3.03;;;1.40;;
43994;SDS011;51687;52.160;5.298;2023-05-20T12:40:18;2.83;;;1.00;;
43994;SDS011;51687;52.160;5.298;2023-05-20T12:42:45;3.95;;;1.27;;
43994;SDS011;51687;52.160;5.298;2023-05-20T12:45:12;4.05;;;1.17;;
43994;SDS011;51687;52.160;5.298;2023-05-20T12:47:40;4.80;;;1.40;;
43994;SDS011;51687;52.160;5.298;2023-05-20T12:50:07;2.38;;;1.55;;
43994;SDS011;51687;52.160;5.298;2023-05-20T12:52:34;3.53;;;1.20;;
43994;SDS011;51687;52.160;5.298;2023-05-20T12:55:02;2.47;;;1.05;;
43994;SDS011;51687;52.160;5.298;2023-05-20T12:57:30;7.80;;;1.42;;
43994;SDS011;51687;52.160;5.298;2023-05-20T12:59:57;4.78;;;1.20;;
43994;SDS011;51687;52.160;5.298;2023-05-20T13:02:25;3.95;;;1.40;;
43994;SDS011;51687;52.160;5.298;2023-05-20T13:04:52;1.63;;;1.25;;
43994;SDS011;51687;52.160;5.298;2023-05-20T13:07:19;5.60;;;1.30;;
43994;SDS011;51687;52.160;5.298;2023-05-20T13:09:46;2.35;;;1.20;;
43994;SDS011;51687;52.160;5.298;2023-05-20T13:12:13;5.00;;;1.70;;
43994;SDS011;51687;52.160;5.298;2023-05-20T13:14:40;2.30;;;1.10;;
43994;SDS011;51687;52.160;5.298;2023-05-20T13:17:07;2.75;;;1.17;;
43994;SDS011;51687;52.160;5.298;2023-05-20T13:19:34;4.35;;;1.23;;
43994;SDS011;51687;52.160;5.298;2023-05-20T13:22:03;5.57;;;1.83;;
43994;SDS011;51687;52.160;5.298;2023-05-20T13:26:59;4.10;;;1.20;;
43994;SDS011;51687;52.160;5.298;2023-05-20T13:29:26;8.52;;;1.50;;
43994;SDS011;51687;52.160;5.298;2023-05-20T13:31:53;4.80;;;1.40;;
43994;SDS011;51687;52.160;5.298;2023-05-20T13:34:21;3.88;;;1.35;;
43994;SDS011;51687;52.160;5.298;2023-05-20T13:36:48;3.42;;;1.48;;
43994;SDS011;51687;52.160;5.298;2023-05-20T13:39:19;2.58;;;1.55;;
43994;SDS011;51687;52.160;5.298;2023-05-20T13:41:46;8.38;;;2.33;;
43994;SDS011;51687;52.160;5.298;2023-05-20T13:44:13;3.05;;;1.30;;
43994;SDS011;51687;52.160;5.298;2023-05-20T13:46:40;2.88;;;1.20;;
43994;SDS011;51687;52.160;5.298;2023-05-20T13:49:08;4.68;;;1.30;;
43994;SDS011;51687;52.160;5.298;2023-05-20T13:51:35;5.32;;;1.30;;
43994;SDS011;51687;52.160;5.298;2023-05-20T13:54:02;3.20;;;1.00;;
43994;SDS011;51687;52.160;5.298;2023-05-20T13:56:29;1.83;;;1.15;;
43994;SDS011;51687;52.160;5.298;2023-05-20T13:58:57;2.22;;;1.15;;
43994;SDS011;51687;52.160;5.298;2023-05-20T14:01:24;2.38;;;1.20;;
43994;SDS011;51687;52.160;5.298;2023-05-20T14:03:51;2.63;;;1.20;;
43994;SDS011;51687;52.160;5.298;2023-05-20T14:06:19;3.00;;;1.10;;
43994;SDS011;51687;52.160;5.298;2023-05-20T14:08:47;4.10;;;1.08;;
43994;SDS011;51687;52.160;5.298;2023-05-20T14:11:14;4.40;;;1.10;;
43994;SDS011;51687;52.160;5.298;2023-05-20T14:13:41;6.18;;;1.40;;
43994;SDS011;51687;52.160;5.298;2023-05-20T14:16:10;2.90;;;1.20;;
43994;SDS011;51687;52.160;5.298;2023-05-20T14:18:37;4.25;;;1.60;;
43994;SDS011;51687;52.160;5.298;2023-05-20T14:21:04;7.13;;;1.45;;
43994;SDS011;51687;52.160;5.298;2023-05-20T14:23:32;1.73;;;1.13;;
43994;SDS011;51687;52.160;5.298;2023-05-20T14:25:59;5.82;;;1.50;;
43994;SDS011;51687;52.160;5.298;2023-05-20T14:28:26;3.33;;;1.17;;
43994;SDS011;51687;52.160;5.298;2023-05-20T14:30:53;1.33;;;1.00;;
43994;SDS011;51687;52.160;5.298;2023-05-20T14:33:20;2.08;;;1.20;;
43994;SDS011;51687;52.160;5.298;2023-05-20T14:35:47;1.63;;;1.10;;
43994;SDS011;51687;52.160;5.298;2023-05-20T14:38:15;3.25;;;1.17;;
43994;SDS011;51687;52.160;5.298;2023-05-20T14:40:43;1.92;;;1.15;;
43994;SDS011;51687;52.160;5.298;2023-05-20T14:43:10;4.30;;;1.13;;
43994;SDS011;51687;52.160;5.298;2023-05-20T14:45:37;5.88;;;1.25;;
43994;SDS011;51687;52.160;5.298;2023-05-20T14:48:04;2.20;;;1.40;;
43994;SDS011;51687;52.160;5.298;2023-05-20T14:50:32;4.83;;;1.33;;
43994;SDS011;51687;52.160;5.298;2023-05-20T14:52:59;1.67;;;1.00;;
43994;SDS011;51687;52.160;5.298;2023-05-20T14:55:26;1.73;;;1.10;;
43994;SDS011;51687;52.160;5.298;2023-05-20T14:57:54;3.53;;;1.27;;
43994;SDS011;51687;52.160;5.298;2023-05-20T15:00:21;3.30;;;1.15;;
43994;SDS011;51687;52.160;5.298;2023-05-20T15:02:48;1.42;;;1.00;;
43994;SDS011;51687;52.160;5.298;2023-05-20T15:05:15;7.28;;;1.58;;
43994;SDS011;51687;52.160;5.298;2023-05-20T15:07:43;2.60;;;1.60;;
43994;SDS011;51687;52.160;5.298;2023-05-20T15:10:12;4.30;;;1.42;;
43994;SDS011;51687;52.160;5.298;2023-05-20T15:12:39;8.20;;;1.50;;
43994;SDS011;51687;52.160;5.298;2023-05-20T15:15:07;3.88;;;1.45;;
43994;SDS011;51687;52.160;5.298;2023-05-20T15:20:02;4.22;;;2.00;;
43994;SDS011;51687;52.160;5.298;2023-05-20T15:22:30;2.35;;;1.60;;
43994;SDS011;51687;52.160;5.298;2023-05-20T15:24:57;1.75;;;1.40;;